createdAt,value
2023-02-11T00:01:20.204Z,23.38
2023-02-11T00:03:47.166Z,23.85
2023-02-11T00:06:14.709Z,22.30
2023-02-11T00:08:41.643Z,23.10
2023-02-11T00:11:12.261Z,23.15
2023-02-11T00:13:39.148Z,23.17
2023-02-11T00:16:12.121Z,23.80
2023-02-11T00:18:39.416Z,24.13
2023-02-11T00:21:11.540Z,25.27
2023-02-11T00:26:16.436Z,23.88
2023-02-11T00:28:44.797Z,23.83
2023-02-11T00:31:13.178Z,24.30
2023-02-11T00:33:40.372Z,24.77
2023-02-11T00:36:11.996Z,23.42
2023-02-11T00:38:39.015Z,25.13
2023-02-11T00:41:07.371Z,25.38
2023-02-11T00:43:35.301Z,25.27
2023-02-11T00:46:02.335Z,22.85
2023-02-11T00:48:30.670Z,24.50
2023-02-11T00:50:57.625Z,22.10
2023-02-11T00:53:27.317Z,23.15
2023-02-11T00:55:54.322Z,22.02
2023-02-11T00:58:22.572Z,22.75
2023-02-11T01:00:50.360Z,22.42
2023-02-11T01:03:17.539Z,21.80
2023-02-11T01:05:44.591Z,22.00
2023-02-11T01:08:14.884Z,20.25
2023-02-11T01:10:42.177Z,20.27
2023-02-11T01:13:09.102Z,20.08
2023-02-11T01:15:36.604Z,19.98
2023-02-11T01:18:05.750Z,18.50
2023-02-11T01:20:32.730Z,19.05
2023-02-11T01:23:00.799Z,19.05
2023-02-11T01:25:27.726Z,17.58
2023-02-11T01:27:54.815Z,16.92
2023-02-11T01:30:23.200Z,17.15
2023-02-11T01:32:50.285Z,17.70
2023-02-11T01:35:17.390Z,18.17
2023-02-11T01:37:44.291Z,17.90
2023-02-11T01:40:19.497Z,16.38
2023-02-11T01:42:49.365Z,15.13
2023-02-11T01:45:49.385Z,16.53
2023-02-11T01:48:28.631Z,15.70
2023-02-11T01:51:02.585Z,14.35
2023-02-11T01:53:49.052Z,15.10
2023-02-11T01:56:36.969Z,13.82
2023-02-11T01:59:11.718Z,14.82
2023-02-11T02:01:41.650Z,14.60
2023-02-11T02:04:10.243Z,14.00
2023-02-11T02:06:46.301Z,13.63
2023-02-11T02:09:44.121Z,13.80
2023-02-11T02:12:11.195Z,13.13
2023-02-11T02:14:40.631Z,13.57
2023-02-11T02:17:16.492Z,13.00
2023-02-11T02:20:19.405Z,13.55
2023-02-11T02:22:52.616Z,12.95
2023-02-11T02:25:56.859Z,13.52
2023-02-11T02:29:01.677Z,12.85
2023-02-11T02:31:58.259Z,14.40
2023-02-11T02:34:58.853Z,13.07
2023-02-11T02:37:41.015Z,13.50
2023-02-11T02:40:22.720Z,13.40
2023-02-11T02:42:51.016Z,13.65
2023-02-11T02:45:18.778Z,13.52
2023-02-11T02:47:45.729Z,12.98
2023-02-11T02:50:16.665Z,14.10
2023-02-11T02:52:56.896Z,13.15
2023-02-11T02:55:42.680Z,12.65
2023-02-11T02:58:18.741Z,12.82
2023-02-11T03:01:05.101Z,14.80
2023-02-11T03:04:01.647Z,13.45
2023-02-11T03:06:38.841Z,13.38
2023-02-11T03:09:32.258Z,14.05
2023-02-11T03:12:00.698Z,13.13
2023-02-11T03:14:30.189Z,12.25
2023-02-11T03:17:00.854Z,12.30
2023-02-11T03:19:38.729Z,12.02
2023-02-11T03:22:10.690Z,12.65
2023-02-11T03:24:39.855Z,13.20
2023-02-11T03:27:27.745Z,12.20
2023-02-11T03:30:22.259Z,12.93
2023-02-11T03:32:56.015Z,12.27
2023-02-11T03:35:46.588Z,14.10
2023-02-11T03:38:31.741Z,12.93
2023-02-11T03:41:00.616Z,12.60
2023-02-11T03:43:58.015Z,12.82
2023-02-11T03:46:33.636Z,12.85
2023-02-11T03:49:09.841Z,13.60
2023-02-11T03:51:37.465Z,12.90
2023-02-11T03:54:10.703Z,13.90
2023-02-11T03:56:46.408Z,13.18
2023-02-11T03:59:14.399Z,12.90
2023-02-11T04:01:41.385Z,13.68
2023-02-11T04:04:10.517Z,14.73
2023-02-11T04:06:37.662Z,13.15
2023-02-11T04:09:04.890Z,14.23
2023-02-11T04:11:31.868Z,14.15
2023-02-11T04:14:00.399Z,12.90
2023-02-11T04:16:27.397Z,15.00
2023-02-11T04:18:54.497Z,13.02
2023-02-11T04:21:21.639Z,13.43
2023-02-11T04:23:48.804Z,14.40
2023-02-11T04:26:15.743Z,13.77
2023-02-11T04:28:42.686Z,14.40
2023-02-11T04:31:12.283Z,14.65
2023-02-11T04:33:39.951Z,15.40
2023-02-11T04:36:07.422Z,15.05
2023-02-11T04:38:34.340Z,14.95
2023-02-11T04:41:01.407Z,14.55
2023-02-11T04:43:28.513Z,14.95
2023-02-11T04:45:58.977Z,14.60
2023-02-11T04:48:26.879Z,14.30
2023-02-11T04:50:53.912Z,14.30
2023-02-11T04:53:21.415Z,15.57
2023-02-11T04:55:59.404Z,15.55
2023-02-11T04:58:26.409Z,15.98
2023-02-11T05:00:53.521Z,16.13
2023-02-11T05:03:20.444Z,17.35
2023-02-11T05:05:50.700Z,18.05
2023-02-11T05:08:18.116Z,18.00
2023-02-11T05:10:47.270Z,18.25
2023-02-11T05:13:14.376Z,18.17
2023-02-11T05:15:41.413Z,19.60
2023-02-11T05:18:08.470Z,18.33
2023-02-11T05:20:37.784Z,19.65
2023-02-11T05:23:04.834Z,19.55
2023-02-11T05:25:31.832Z,19.23
2023-02-11T05:27:58.789Z,21.77
2023-02-11T05:30:26.096Z,18.65
2023-02-11T05:32:53.194Z,20.58
2023-02-11T05:35:20.400Z,20.50
2023-02-11T05:37:47.389Z,20.15
2023-02-11T05:40:14.612Z,21.02
2023-02-11T05:42:45.281Z,20.35
2023-02-11T05:45:12.450Z,20.40
2023-02-11T05:47:39.372Z,20.70
2023-02-11T05:50:06.761Z,19.23
2023-02-11T05:52:33.714Z,21.95
2023-02-11T05:55:00.901Z,20.40
2023-02-11T05:57:27.987Z,22.42
2023-02-11T05:59:54.921Z,23.27
2023-02-11T06:02:21.950Z,20.33
2023-02-11T06:04:48.953Z,21.38
2023-02-11T06:07:17.541Z,20.73
2023-02-11T06:09:44.466Z,22.15
2023-02-11T06:12:11.366Z,21.45
2023-02-11T06:14:38.392Z,20.80
2023-02-11T06:17:05.460Z,22.25
2023-02-11T06:19:34.158Z,22.77
2023-02-11T06:22:02.271Z,22.02
2023-02-11T06:24:54.720Z,21.77
2023-02-11T06:27:16.335Z,23.08
2023-02-11T06:29:43.349Z,22.75
2023-02-11T06:32:33.574Z,23.73
2023-02-11T06:34:59.426Z,23.92
2023-02-11T06:37:26.481Z,24.08
2023-02-11T06:39:53.492Z,23.15
2023-02-11T06:42:20.657Z,23.85
2023-02-11T06:44:47.629Z,22.85
2023-02-11T06:47:14.564Z,23.63
2023-02-11T06:49:41.466Z,23.83
2023-02-11T06:52:08.486Z,24.50
2023-02-11T06:54:35.670Z,23.77
2023-02-11T06:57:03.439Z,24.95
2023-02-11T06:59:30.695Z,24.25
2023-02-11T07:01:57.632Z,25.25
2023-02-11T07:04:28.415Z,27.38
2023-02-11T07:06:55.381Z,26.52
2023-02-11T07:09:22.443Z,27.45
2023-02-11T07:11:50.795Z,26.58
2023-02-11T07:14:17.755Z,28.33
2023-02-11T07:16:44.659Z,26.88
2023-02-11T07:19:11.720Z,27.65
2023-02-11T07:21:38.910Z,28.67
2023-02-11T07:24:11.160Z,29.55
2023-02-11T07:26:38.828Z,29.17
2023-02-11T07:29:05.779Z,29.50
2023-02-11T07:31:33.321Z,30.00
2023-02-11T07:34:03.451Z,30.50
2023-02-11T07:36:32.235Z,30.75
2023-02-11T07:39:00.393Z,31.95
2023-02-11T07:41:27.886Z,31.58
2023-02-11T07:43:54.945Z,32.22
2023-02-11T07:46:28.712Z,32.55
2023-02-11T07:48:56.259Z,31.65
2023-02-11T07:51:26.168Z,32.15
2023-02-11T07:53:53.803Z,32.65
2023-02-11T07:56:22.560Z,32.85
2023-02-11T07:58:50.734Z,33.80
2023-02-11T08:01:24.989Z,33.17
2023-02-11T08:03:53.013Z,34.38
2023-02-11T08:06:22.492Z,33.22
2023-02-11T08:08:50.690Z,33.63
2023-02-11T08:11:21.457Z,35.40
2023-02-11T08:13:49.021Z,33.58
2023-02-11T08:16:22.380Z,33.58
2023-02-11T08:18:50.828Z,34.17
2023-02-11T08:21:18.354Z,34.45
2023-02-11T08:23:46.426Z,34.33
2023-02-11T08:26:23.444Z,34.35
2023-02-11T08:28:52.328Z,33.78
2023-02-11T08:31:23.066Z,33.70
2023-02-11T08:33:50.727Z,34.28
2023-02-11T08:36:20.254Z,33.58
2023-02-11T08:38:47.555Z,33.58
2023-02-11T08:41:15.064Z,33.72
2023-02-11T08:43:43.856Z,33.50
2023-02-11T08:46:17.855Z,33.55
2023-02-11T08:48:49.480Z,32.83
2023-02-11T08:51:20.632Z,32.78
2023-02-11T08:53:49.075Z,32.47
2023-02-11T08:56:17.484Z,33.53
2023-02-11T09:01:19.325Z,31.92
2023-02-11T09:06:15.666Z,33.78
2023-02-11T09:08:46.429Z,34.58
2023-02-11T09:11:14.828Z,35.90
2023-02-11T09:13:43.608Z,36.10
2023-02-11T09:16:18.980Z,35.35
2023-02-11T09:18:46.511Z,35.78
2023-02-11T09:21:14.961Z,35.25
2023-02-11T09:23:44.031Z,34.70
2023-02-11T09:26:16.527Z,35.22
2023-02-11T09:28:43.959Z,36.30
2023-02-11T09:31:18.037Z,35.72
2023-02-11T09:33:49.667Z,34.45
2023-02-11T09:36:40.223Z,34.40
2023-02-11T09:39:14.414Z,34.53
2023-02-11T09:41:56.367Z,35.25
2023-02-11T09:44:31.680Z,35.05
2023-02-11T09:47:01.599Z,35.05
2023-02-11T09:49:53.834Z,34.50
2023-02-11T09:52:42.620Z,37.28
2023-02-11T09:55:23.667Z,34.47
2023-02-11T09:57:50.738Z,35.13
2023-02-11T10:00:23.457Z,35.38
2023-02-11T10:03:22.868Z,36.53
2023-02-11T10:06:08.640Z,35.53
2023-02-11T10:08:57.446Z,35.75
2023-02-11T10:11:40.624Z,36.05
2023-02-11T10:14:07.524Z,36.78
2023-02-11T10:17:06.714Z,36.10
2023-02-11T10:19:57.091Z,36.35
2023-02-11T10:22:46.180Z,35.80
2023-02-11T10:25:23.786Z,35.90
2023-02-11T10:27:52.553Z,36.88
2023-02-11T10:30:37.340Z,35.65
2023-02-11T10:33:14.020Z,36.50
2023-02-11T10:35:47.515Z,36.45
2023-02-11T10:38:14.491Z,37.05
2023-02-11T10:40:42.488Z,37.92
2023-02-11T10:43:16.346Z,35.25
2023-02-11T10:45:54.499Z,34.42
2023-02-11T10:48:50.806Z,35.58
2023-02-11T10:51:22.260Z,35.50
2023-02-11T10:54:19.480Z,33.60
2023-02-11T10:56:54.661Z,34.05
2023-02-11T10:59:34.929Z,35.53
2023-02-11T11:02:21.357Z,32.72
2023-02-11T11:04:52.231Z,34.70
2023-02-11T11:07:28.415Z,36.28
2023-02-11T11:10:05.254Z,34.15
2023-02-11T11:12:36.657Z,35.88
2023-02-11T11:15:18.918Z,36.00
2023-02-11T11:20:36.431Z,34.92
2023-02-11T11:23:17.747Z,33.42
2023-02-11T11:25:59.453Z,35.15
2023-02-11T11:28:29.871Z,33.85
2023-02-11T11:31:00.566Z,35.70
2023-02-11T11:33:35.834Z,34.75
2023-02-11T11:36:04.155Z,36.65
2023-02-11T11:38:33.678Z,34.78
2023-02-11T11:41:24.300Z,37.15
2023-02-11T11:44:13.984Z,35.60
2023-02-11T11:46:44.456Z,34.03
2023-02-11T11:49:30.625Z,35.47
2023-02-11T11:52:39.764Z,35.53
2023-02-11T11:55:34.455Z,35.63
2023-02-11T11:58:01.802Z,33.90
2023-02-11T12:00:39.959Z,34.83
2023-02-11T12:03:31.272Z,33.78
2023-02-11T12:06:07.473Z,31.23
2023-02-11T12:08:50.473Z,33.53
2023-02-11T12:11:23.099Z,35.60
2023-02-11T12:14:08.640Z,32.28
2023-02-11T12:17:06.511Z,33.05
2023-02-11T12:20:10.274Z,32.40
2023-02-11T12:22:45.922Z,33.28
2023-02-11T12:25:29.855Z,32.40
2023-02-11T12:28:24.799Z,30.83
2023-02-11T12:31:13.413Z,33.22
2023-02-11T12:33:46.199Z,33.55
2023-02-11T12:36:21.041Z,33.97
2023-02-11T12:39:12.199Z,32.20
2023-02-11T12:42:00.616Z,32.20
2023-02-11T12:44:53.335Z,32.95
2023-02-11T12:50:39.005Z,32.17
2023-02-11T12:53:21.723Z,31.45
2023-02-11T12:55:54.170Z,31.75
2023-02-11T12:58:35.546Z,31.38
2023-02-11T13:01:19.147Z,31.52
2023-02-11T13:03:53.503Z,30.92
2023-02-11T13:06:46.647Z,31.80
2023-02-11T13:09:23.687Z,30.38
2023-02-11T13:11:55.936Z,30.88
2023-02-11T13:16:54.340Z,32.13
2023-02-11T13:19:45.995Z,30.00
2023-02-11T13:22:39.493Z,30.47
2023-02-11T13:25:34.412Z,31.60
2023-02-11T13:28:14.645Z,30.42
2023-02-11T13:30:47.301Z,29.02
2023-02-11T13:33:21.813Z,31.58
2023-02-11T13:36:09.085Z,30.77
2023-02-11T13:38:38.226Z,32.17
2023-02-11T13:41:21.408Z,31.35
2023-02-11T13:44:19.353Z,30.42
2023-02-11T13:46:59.523Z,32.65
2023-02-11T13:49:31.663Z,30.80
2023-02-11T13:52:01.339Z,30.17
2023-02-11T13:54:39.039Z,31.48
2023-02-11T13:57:21.295Z,30.90
2023-02-11T14:02:47.489Z,29.50
2023-02-11T14:05:44.133Z,31.55
2023-02-11T14:08:40.916Z,30.77
2023-02-11T14:11:27.885Z,32.13
2023-02-11T14:13:55.410Z,30.30
2023-02-11T14:16:37.047Z,32.10
2023-02-11T14:19:06.558Z,31.50
2023-02-11T14:21:38.988Z,29.23
2023-02-11T14:27:11.532Z,29.63
2023-02-11T14:30:06.874Z,29.00
2023-02-11T14:32:56.535Z,31.90
2023-02-11T14:36:12.384Z,29.27
2023-02-11T14:39:16.778Z,28.85
2023-02-11T14:41:46.276Z,30.15
2023-02-11T14:44:31.930Z,29.48
2023-02-11T14:46:59.450Z,29.85
2023-02-11T14:49:33.860Z,29.90
2023-02-11T14:52:07.735Z,29.50
2023-02-11T14:54:35.589Z,30.98
2023-02-11T14:57:17.323Z,30.75
2023-02-11T15:00:05.547Z,30.40
2023-02-11T15:02:38.394Z,29.38
2023-02-11T15:05:19.515Z,29.55
2023-02-11T15:07:55.454Z,30.27
2023-02-11T15:10:43.593Z,30.02
2023-02-11T15:13:19.100Z,31.05
2023-02-11T15:15:49.567Z,29.13
2023-02-11T15:18:24.268Z,30.17
2023-02-11T15:20:52.462Z,31.27
2023-02-11T15:23:29.199Z,30.02
2023-02-11T15:25:56.798Z,32.00
2023-02-11T15:28:31.058Z,31.13
2023-02-11T15:31:20.137Z,30.60
2023-02-11T15:33:47.696Z,31.38
2023-02-11T15:36:16.137Z,29.80
2023-02-11T15:38:43.499Z,30.83
2023-02-11T15:41:35.674Z,31.92
2023-02-11T15:44:02.780Z,30.80
2023-02-11T15:46:42.555Z,32.92
2023-02-11T15:49:19.264Z,30.25
2023-02-11T15:51:47.324Z,30.48
2023-02-11T15:54:23.407Z,31.50
2023-02-11T15:56:52.849Z,34.08
2023-02-11T15:59:27.534Z,33.42
2023-02-11T16:01:55.556Z,32.53
2023-02-11T16:04:26.446Z,32.85
2023-02-11T16:06:54.832Z,34.95
2023-02-11T16:09:39.991Z,35.08
2023-02-11T16:12:24.401Z,31.85
2023-02-11T16:14:51.334Z,31.80
2023-02-11T16:17:27.970Z,34.05
2023-02-11T16:19:55.406Z,34.53
2023-02-11T16:22:35.476Z,33.75
2023-02-11T16:25:02.930Z,33.92
2023-02-11T16:27:37.636Z,34.42
2023-02-11T16:30:05.670Z,34.72
2023-02-11T16:32:34.299Z,33.85
2023-02-11T16:35:01.869Z,33.13
2023-02-11T16:37:28.808Z,34.00
2023-02-11T16:39:56.946Z,33.88
2023-02-11T16:42:24.592Z,36.47
2023-02-11T16:44:51.850Z,35.97
2023-02-11T16:47:28.016Z,34.35
2023-02-11T16:49:56.191Z,34.63
2023-02-11T16:52:23.635Z,34.97
2023-02-11T16:54:52.279Z,35.03
2023-02-11T16:57:42.220Z,34.97
2023-02-11T17:00:10.513Z,33.25
2023-02-11T17:02:38.296Z,35.17
2023-02-11T17:05:08.362Z,34.10
2023-02-11T17:07:35.517Z,35.40
2023-02-11T17:10:03.906Z,33.35
2023-02-11T17:12:30.921Z,35.53
2023-02-11T17:14:59.387Z,34.17
2023-02-11T17:17:26.430Z,34.47
2023-02-11T17:19:53.393Z,35.88
2023-02-11T17:22:21.443Z,36.33
2023-02-11T17:24:48.392Z,36.80
2023-02-11T17:27:15.501Z,37.58
2023-02-11T17:29:42.556Z,37.50
2023-02-11T17:32:09.593Z,37.08
2023-02-11T17:34:36.753Z,34.53
2023-02-11T17:37:09.084Z,37.83
2023-02-11T17:39:40.089Z,34.45
2023-02-11T17:42:08.813Z,37.72
2023-02-11T17:44:36.007Z,36.45
2023-02-11T17:47:03.080Z,37.33
2023-02-11T17:49:29.992Z,36.33
2023-02-11T17:51:57.334Z,36.17
2023-02-11T17:54:25.104Z,37.92
2023-02-11T17:56:57.825Z,36.70
2023-02-11T17:59:27.296Z,38.72
2023-02-11T18:01:57.055Z,39.15
2023-02-11T18:04:24.201Z,38.38
2023-02-11T18:06:53.789Z,37.65
2023-02-11T18:09:21.099Z,40.40
2023-02-11T18:11:50.522Z,40.78
2023-02-11T18:14:17.767Z,41.10
2023-02-11T18:16:45.221Z,40.88
2023-02-11T18:19:17.485Z,43.55
2023-02-11T18:21:44.873Z,41.95
2023-02-11T18:24:12.022Z,43.30
2023-02-11T18:26:39.058Z,40.58
2023-02-11T18:29:07.095Z,39.58
2023-02-11T18:31:35.467Z,40.90
2023-02-11T18:34:05.966Z,39.22
2023-02-11T18:36:33.311Z,39.95
2023-02-11T18:39:00.821Z,40.17
2023-02-11T18:41:28.346Z,41.13
2023-02-11T18:43:58.726Z,40.83
2023-02-11T18:46:25.834Z,39.20
2023-02-11T18:48:55.996Z,38.90
2023-02-11T18:51:23.782Z,43.13
2023-02-11T18:53:50.724Z,41.88
2023-02-11T18:56:31.974Z,45.67
2023-02-11T18:59:01.314Z,44.17
2023-02-11T19:01:30.132Z,41.65
2023-02-11T19:03:58.821Z,43.03
2023-02-11T19:06:28.374Z,41.75
2023-02-11T19:08:59.539Z,42.03
2023-02-11T19:11:47.199Z,41.17
2023-02-11T19:14:16.012Z,41.42
2023-02-11T19:16:44.601Z,39.80
2023-02-11T19:19:11.595Z,41.63
2023-02-11T19:21:40.302Z,42.38
2023-02-11T19:24:08.455Z,43.30
2023-02-11T19:26:37.068Z,42.53
2023-02-11T19:29:05.504Z,40.45
2023-02-11T19:31:34.744Z,41.40
2023-02-11T19:34:03.014Z,42.75
2023-02-11T19:36:30.113Z,41.13
2023-02-11T19:39:03.196Z,41.15
2023-02-11T19:41:31.603Z,43.80
2023-02-11T19:43:58.604Z,43.67
2023-02-11T19:46:32.610Z,45.78
2023-02-11T19:49:01.051Z,43.72
2023-02-11T19:51:28.385Z,43.83
2023-02-11T19:53:55.366Z,44.30
2023-02-11T19:56:23.310Z,40.78
2023-02-11T19:58:50.286Z,44.70
2023-02-11T20:01:21.979Z,42.45
2023-02-11T20:03:50.680Z,45.20
2023-02-11T20:06:25.855Z,45.90
2023-02-11T20:09:01.721Z,44.58
2023-02-11T20:11:31.977Z,45.67
2023-02-11T20:13:59.918Z,46.20
2023-02-11T20:16:45.076Z,45.55
2023-02-11T20:19:18.353Z,43.60
2023-02-11T20:21:47.831Z,41.00
2023-02-11T20:24:17.349Z,42.47
2023-02-11T20:26:45.803Z,46.08
2023-02-11T20:29:15.423Z,44.22
2023-02-11T20:31:42.901Z,47.42
2023-02-11T20:34:10.863Z,44.70
2023-02-11T20:36:39.450Z,46.90
2023-02-11T20:39:09.040Z,46.58
2023-02-11T20:41:40.659Z,48.38
2023-02-11T20:44:10.229Z,50.45
2023-02-11T20:46:40.197Z,49.13
2023-02-11T20:49:08.658Z,46.60
2023-02-11T20:51:37.063Z,49.63
2023-02-11T20:54:06.197Z,48.92
2023-02-11T20:56:37.236Z,47.95
2023-02-11T20:59:05.300Z,46.88
2023-02-11T21:01:40.675Z,45.47
2023-02-11T21:04:19.421Z,44.95
2023-02-11T21:06:49.391Z,45.35
2023-02-11T21:09:19.974Z,46.40
2023-02-11T21:11:48.132Z,46.42
2023-02-11T21:14:15.256Z,44.47
2023-02-11T21:16:42.342Z,45.85
2023-02-11T21:19:10.126Z,46.28
2023-02-11T21:21:38.544Z,46.05
2023-02-11T21:24:07.038Z,45.00
2023-02-11T21:26:35.449Z,45.53
2023-02-11T21:29:08.401Z,45.88
2023-02-11T21:31:36.746Z,45.63
2023-02-11T21:34:04.813Z,45.45
2023-02-11T21:36:32.279Z,47.63
2023-02-11T21:39:00.190Z,46.53
2023-02-11T21:41:27.489Z,46.80
2023-02-11T21:43:54.792Z,45.42
2023-02-11T21:46:22.401Z,47.88
2023-02-11T21:48:50.243Z,46.30
2023-02-11T21:51:20.523Z,46.08
2023-02-11T21:53:47.955Z,44.10
2023-02-11T21:56:17.302Z,46.42
2023-02-11T21:58:45.606Z,46.38
2023-02-11T22:01:18.133Z,46.45
2023-02-11T22:03:48.302Z,46.45
2023-02-11T22:06:18.112Z,47.63
2023-02-11T22:08:45.234Z,44.92
2023-02-11T22:11:13.234Z,49.70
2023-02-11T22:13:41.487Z,45.35
2023-02-11T22:16:11.723Z,46.45
2023-02-11T22:18:38.938Z,45.22
2023-02-11T22:21:12.202Z,46.13
2023-02-11T22:23:39.918Z,45.45
2023-02-11T22:26:12.685Z,46.25
2023-02-11T22:28:40.931Z,44.97
2023-02-11T22:31:17.688Z,44.42
2023-02-11T22:33:46.361Z,46.15
2023-02-11T22:36:19.578Z,44.50
2023-02-11T22:38:46.877Z,44.08
2023-02-11T22:41:14.572Z,43.40
2023-02-11T22:43:42.679Z,44.50
2023-02-11T22:46:12.646Z,44.35
2023-02-11T22:48:44.237Z,44.90
2023-02-11T22:51:15.738Z,44.25
2023-02-11T22:53:45.811Z,46.50
2023-02-11T22:56:15.735Z,44.75
2023-02-11T22:58:43.577Z,44.30
2023-02-11T23:01:12.738Z,43.85
2023-02-11T23:03:40.150Z,44.75
2023-02-11T23:06:07.863Z,44.35
2023-02-11T23:08:35.237Z,43.63
2023-02-11T23:11:13.982Z,46.83
2023-02-11T23:13:43.636Z,45.92
2023-02-11T23:16:16.418Z,44.97
2023-02-11T23:18:44.847Z,43.67
2023-02-11T23:21:16.639Z,45.25
2023-02-11T23:23:43.823Z,46.83
2023-02-11T23:26:12.772Z,44.83
2023-02-11T23:28:40.579Z,43.33
2023-02-11T23:31:39.835Z,46.20
2023-02-11T23:34:08.354Z,44.30
2023-02-11T23:36:35.918Z,44.83
2023-02-11T23:39:05.261Z,43.05
2023-02-11T23:41:32.414Z,44.28
2023-02-11T23:43:59.636Z,44.88
2023-02-11T23:46:27.336Z,44.28
2023-02-11T23:48:54.453Z,47.10
2023-02-11T23:51:22.026Z,44.90
2023-02-11T23:53:49.809Z,46.88
2023-02-11T23:56:27.514Z,42.60
2023-02-11T23:58:56.865Z,44.97
